sensor_id;sensor_type;location;lat;lon;timestamp;pressure;altitude;pressure_sealevel;temperature
27986;BMP280;15453;53.692;10.168;2023-03-19T00:01:45;100888.25;;;15.09
27986;BMP280;15453;53.692;10.168;2023-03-19T00:04:11;100883.56;;;15.09
27986;BMP280;15453;53.692;10.168;2023-03-19T00:06:36;100896.25;;;15.10
27986;BMP280;15453;53.692;10.168;2023-03-19T00:09:01;100890.72;;;15.10
27986;BMP280;15453;53.692;10.168;2023-03-19T00:11:27;100895.41;;;15.10
27986;BMP280;15453;53.692;10.168;2023-03-19T00:13:52;100897.38;;;15.09
27986;BMP280;15453;53.692;10.168;2023-03-19T00:16:17;100885.75;;;15.07
27986;BMP280;15453;53.692;10.168;2023-03-19T00:18:42;100901.50;;;15.07
27986;BMP280;15453;53.692;10.168;2023-03-19T00:21:08;100904.81;;;15.04
27986;BMP280;15453;53.692;10.168;2023-03-19T00:23:34;100904.22;;;15.02
27986;BMP280;15453;53.692;10.168;2023-03-19T00:26:00;100905.59;;;14.99
27986;BMP280;15453;53.692;10.168;2023-03-19T00:28:26;100899.81;;;14.96
27986;BMP280;15453;53.692;10.168;2023-03-19T00:30:51;100897.34;;;14.94
27986;BMP280;15453;53.692;10.168;2023-03-19T00:33:16;100901.47;;;14.92
27986;BMP280;15453;53.692;10.168;2023-03-19T00:35:42;100897.34;;;14.89
27986;BMP280;15453;53.692;10.168;2023-03-19T00:38:07;100899.53;;;14.87
27986;BMP280;15453;53.692;10.168;2023-03-19T00:40:32;100902.59;;;14.86
27986;BMP280;15453;53.692;10.168;2023-03-19T00:42:58;100903.13;;;14.83
27986;BMP280;15453;53.692;10.168;2023-03-19T00:45:23;100903.66;;;14.80
27986;BMP280;15453;53.692;10.168;2023-03-19T00:47:48;100902.00;;;14.79
27986;BMP280;15453;53.692;10.168;2023-03-19T00:50:14;100899.53;;;14.77
27986;BMP280;15453;53.692;10.168;2023-03-19T00:52:39;100900.63;;;14.76
27986;BMP280;15453;53.692;10.168;2023-03-19T00:55:06;100908.31;;;14.74
27986;BMP280;15453;53.692;10.168;2023-03-19T00:57:31;100905.03;;;14.72
27986;BMP280;15453;53.692;10.168;2023-03-19T00:59:57;100912.72;;;14.70
27986;BMP280;15453;53.692;10.168;2023-03-19T01:02:22;100909.44;;;14.68
27986;BMP280;15453;53.692;10.168;2023-03-19T01:04:48;100916.31;;;14.66
27986;BMP280;15453;53.692;10.168;2023-03-19T01:07:13;100922.09;;;14.64
27986;BMP280;15453;53.692;10.168;2023-03-19T01:09:38;100916.84;;;14.63
27986;BMP280;15453;53.692;10.168;2023-03-19T01:12:05;100911.34;;;14.63
27986;BMP280;15453;53.692;10.168;2023-03-19T01:14:31;100923.75;;;14.60
27986;BMP280;15453;53.692;10.168;2023-03-19T01:16:56;100919.59;;;14.58
27986;BMP280;15453;53.692;10.168;2023-03-19T01:19:21;100928.13;;;14.56
27986;BMP280;15453;53.692;10.168;2023-03-19T01:21:47;100920.13;;;14.55
27986;BMP280;15453;53.692;10.168;2023-03-19T01:24:14;100926.47;;;14.50
27986;BMP280;15453;53.692;10.168;2023-03-19T01:26:39;100922.31;;;14.48
27986;BMP280;15453;53.692;10.168;2023-03-19T01:29:05;100919.00;;;14.46
27986;BMP280;15453;53.692;10.168;2023-03-19T01:31:30;100919.00;;;14.46
27986;BMP280;15453;53.692;10.168;2023-03-19T01:33:56;100917.34;;;14.45
27986;BMP280;15453;53.692;10.168;2023-03-19T01:36:21;100918.72;;;14.42
27986;BMP280;15453;53.692;10.168;2023-03-19T01:38:46;100918.72;;;14.42
27986;BMP280;15453;53.692;10.168;2023-03-19T01:41:12;100912.38;;;14.37
27986;BMP280;15453;53.692;10.168;2023-03-19T01:43:38;100907.97;;;14.36
27986;BMP280;15453;53.692;10.168;2023-03-19T01:46:27;100912.91;;;14.34
27986;BMP280;15453;53.692;10.168;2023-03-19T01:48:57;100912.91;;;14.34
27986;BMP280;15453;53.692;10.168;2023-03-19T01:51:26;100908.22;;;14.34
27986;BMP280;15453;53.692;10.168;2023-03-19T01:53:56;100908.22;;;14.34
27986;BMP280;15453;53.692;10.168;2023-03-19T01:56:32;100903.50;;;14.30
27986;BMP280;15453;53.692;10.168;2023-03-19T01:59:00;100908.22;;;14.29
27986;BMP280;15453;53.692;10.168;2023-03-19T02:01:27;100902.97;;;14.28
27986;BMP280;15453;53.692;10.168;2023-03-19T02:03:54;100908.16;;;14.24
27986;BMP280;15453;53.692;10.168;2023-03-19T02:06:20;100901.84;;;14.24
27986;BMP280;15453;53.692;10.168;2023-03-19T02:08:47;100904.88;;;14.22
27986;BMP280;15453;53.692;10.168;2023-03-19T02:11:13;100895.19;;;14.20
27986;BMP280;15453;53.692;10.168;2023-03-19T02:13:39;100899.31;;;14.17
27986;BMP280;15453;53.692;10.168;2023-03-19T02:16:05;100899.56;;;14.16
27986;BMP280;15453;53.692;10.168;2023-03-19T02:18:31;100890.75;;;14.14
27986;BMP280;15453;53.692;10.168;2023-03-19T02:21:02;100896.25;;;14.14
27986;BMP280;15453;53.692;10.168;2023-03-19T02:23:34;100890.19;;;14.12
27986;BMP280;15453;53.692;10.168;2023-03-19T02:26:03;100900.63;;;14.10
27986;BMP280;15453;53.692;10.168;2023-03-19T02:28:31;100900.63;;;14.10
27986;BMP280;15453;53.692;10.168;2023-03-19T02:30:57;100895.09;;;14.05
27986;BMP280;15453;53.692;10.168;2023-03-19T02:33:22;100895.09;;;14.05
27986;BMP280;15453;53.692;10.168;2023-03-19T02:35:50;100893.44;;;13.99
27986;BMP280;15453;53.692;10.168;2023-03-19T02:38:16;100903.63;;;13.98
27986;BMP280;15453;53.692;10.168;2023-03-19T02:40:50;100906.91;;;13.95
27986;BMP280;15453;53.692;10.168;2023-03-19T02:43:16;100903.84;;;13.92
27986;BMP280;15453;53.692;10.168;2023-03-19T02:45:41;100904.13;;;13.90
27986;BMP280;15453;53.692;10.168;2023-03-19T02:48:06;100906.88;;;13.90
27986;BMP280;15453;53.692;10.168;2023-03-19T02:50:32;100901.88;;;13.87
27986;BMP280;15453;53.692;10.168;2023-03-19T02:52:57;100908.75;;;13.85
27986;BMP280;15453;53.692;10.168;2023-03-19T02:55:22;100904.63;;;13.82
27986;BMP280;15453;53.692;10.168;2023-03-19T02:57:48;100913.44;;;13.79
27986;BMP280;15453;53.692;10.168;2023-03-19T03:00:13;100907.63;;;13.76
27986;BMP280;15453;53.692;10.168;2023-03-19T03:02:41;100908.13;;;13.73
27986;BMP280;15453;53.692;10.168;2023-03-19T03:05:08;100899.34;;;13.71
27986;BMP280;15453;53.692;10.168;2023-03-19T03:07:33;100901.53;;;13.69
27986;BMP280;15453;53.692;10.168;2023-03-19T03:09:58;100898.47;;;13.65
27986;BMP280;15453;53.692;10.168;2023-03-19T03:12:24;100904.50;;;13.62
27986;BMP280;15453;53.692;10.168;2023-03-19T03:14:49;100900.34;;;13.60
27986;BMP280;15453;53.692;10.168;2023-03-19T03:17:15;100906.41;;;13.57
27986;BMP280;15453;53.692;10.168;2023-03-19T03:19:41;100904.44;;;13.52
27986;BMP280;15453;53.692;10.168;2023-03-19T03:22:06;100912.13;;;13.50
27986;BMP280;15453;53.692;10.168;2023-03-19T03:24:32;100913.22;;;13.49
27986;BMP280;15453;53.692;10.168;2023-03-19T03:26:57;100908.25;;;13.46
27986;BMP280;15453;53.692;10.168;2023-03-19T03:29:23;100911.53;;;13.43
27986;BMP280;15453;53.692;10.168;2023-03-19T03:31:48;100911.53;;;13.43
27986;BMP280;15453;53.692;10.168;2023-03-19T03:34:13;100909.56;;;13.39
27986;BMP280;15453;53.692;10.168;2023-03-19T03:36:38;100905.41;;;13.36
27986;BMP280;15453;53.692;10.168;2023-03-19T03:39:04;100905.41;;;13.36
27986;BMP280;15453;53.692;10.168;2023-03-19T03:41:29;100914.47;;;13.32
27986;BMP280;15453;53.692;10.168;2023-03-19T03:43:54;100914.47;;;13.32
27986;BMP280;15453;53.692;10.168;2023-03-19T03:46:20;100918.50;;;13.24
27986;BMP280;15453;53.692;10.168;2023-03-19T03:48:45;100914.38;;;13.22
27986;BMP280;15453;53.692;10.168;2023-03-19T03:51:13;100914.38;;;13.22
27986;BMP280;15453;53.692;10.168;2023-03-19T03:53:39;100903.59;;;13.15
27986;BMP280;15453;53.692;10.168;2023-03-19T03:56:04;100901.34;;;13.12
27986;BMP280;15453;53.692;10.168;2023-03-19T03:58:30;100903.56;;;13.10
27986;BMP280;15453;53.692;10.168;2023-03-19T04:00:55;100903.25;;;13.07
27986;BMP280;15453;53.692;10.168;2023-03-19T04:03:21;100903.50;;;13.05
27986;BMP280;15453;53.692;10.168;2023-03-19T04:05:48;100901.28;;;13.02
27986;BMP280;15453;53.692;10.168;2023-03-19T04:08:13;100908.13;;;13.00
27986;BMP280;15453;53.692;10.168;2023-03-19T04:10:40;100908.38;;;12.98
27986;BMP280;15453;53.692;10.168;2023-03-19T04:13:07;100909.72;;;12.96
27986;BMP280;15453;53.692;10.168;2023-03-19T04:15:32;100916.31;;;12.95
27986;BMP280;15453;53.692;10.168;2023-03-19T04:17:57;100906.66;;;12.92
27986;BMP280;15453;53.692;10.168;2023-03-19T04:20:23;100911.31;;;12.92
27986;BMP280;15453;53.692;10.168;2023-03-19T04:22:49;100912.66;;;12.89
27986;BMP280;15453;53.692;10.168;2023-03-19T04:25:15;100905.78;;;12.87
27986;BMP280;15453;53.692;10.168;2023-03-19T04:27:40;100907.13;;;12.84
27986;BMP280;15453;53.692;10.168;2023-03-19T04:30:06;100915.63;;;12.83
27986;BMP280;15453;53.692;10.168;2023-03-19T04:32:31;100908.47;;;12.82
27986;BMP280;15453;53.692;10.168;2023-03-19T04:34:57;100906.25;;;12.79
27986;BMP280;15453;53.692;10.168;2023-03-19T04:37:22;100910.09;;;12.78
27986;BMP280;15453;53.692;10.168;2023-03-19T04:39:48;100919.41;;;12.77
27986;BMP280;15453;53.692;10.168;2023-03-19T04:42:13;100915.00;;;12.76
27986;BMP280;15453;53.692;10.168;2023-03-19T04:44:39;100920.50;;;12.76
27986;BMP280;15453;53.692;10.168;2023-03-19T04:47:04;100914.44;;;12.74
27986;BMP280;15453;53.692;10.168;2023-03-19T04:49:30;100914.69;;;12.72
27986;BMP280;15453;53.692;10.168;2023-03-19T04:51:56;100911.97;;;12.72
27986;BMP280;15453;53.692;10.168;2023-03-19T04:54:22;100913.84;;;12.72
27986;BMP280;15453;53.692;10.168;2023-03-19T04:56:47;100913.31;;;12.70
27986;BMP280;15453;53.692;10.168;2023-03-19T04:59:12;100912.22;;;12.71
27986;BMP280;15453;53.692;10.168;2023-03-19T05:01:37;100916.06;;;12.70
27986;BMP280;15453;53.692;10.168;2023-03-19T05:04:03;100909.72;;;12.69
27986;BMP280;15453;53.692;10.168;2023-03-19T05:06:28;100905.31;;;12.68
27986;BMP280;15453;53.692;10.168;2023-03-19T05:08:53;100910.81;;;12.68
27986;BMP280;15453;53.692;10.168;2023-03-19T05:11:19;100911.63;;;12.69
27986;BMP280;15453;53.692;10.168;2023-03-19T05:13:44;100909.16;;;12.67
27986;BMP280;15453;53.692;10.168;2023-03-19T05:16:10;100903.91;;;12.66
27986;BMP280;15453;53.692;10.168;2023-03-19T05:18:35;100913.81;;;12.67
27986;BMP280;15453;53.692;10.168;2023-03-19T05:21:00;100925.91;;;12.66
27986;BMP280;15453;53.692;10.168;2023-03-19T05:23:26;100926.16;;;12.64
27986;BMP280;15453;53.692;10.168;2023-03-19T05:25:51;100920.66;;;12.64
27986;BMP280;15453;53.692;10.168;2023-03-19T05:28:17;100931.41;;;12.66
27986;BMP280;15453;53.692;10.168;2023-03-19T05:30:42;100921.75;;;12.63
27986;BMP280;15453;53.692;10.168;2023-03-19T05:33:07;100919.81;;;12.64
27986;BMP280;15453;53.692;10.168;2023-03-19T05:35:33;100925.91;;;12.66
27986;BMP280;15453;53.692;10.168;2023-03-19T05:37:58;100923.16;;;12.66
27986;BMP280;15453;53.692;10.168;2023-03-19T05:40:24;100934.69;;;12.68
27986;BMP280;15453;53.692;10.168;2023-03-19T05:42:49;100923.72;;;12.68
27986;BMP280;15453;53.692;10.168;2023-03-19T05:45:15;100917.13;;;12.69
27986;BMP280;15453;53.692;10.168;2023-03-19T05:47:41;100922.59;;;12.69
27986;BMP280;15453;53.692;10.168;2023-03-19T05:50:07;100925.09;;;12.70
27986;BMP280;15453;53.692;10.168;2023-03-19T05:52:33;100916.88;;;12.70
27986;BMP280;15453;53.692;10.168;2023-03-19T05:54:58;100909.72;;;12.69
27986;BMP280;15453;53.692;10.168;2023-03-19T05:57:23;100915.22;;;12.69
27986;BMP280;15453;53.692;10.168;2023-03-19T05:59:48;100916.88;;;12.70
27986;BMP280;15453;53.692;10.168;2023-03-19T06:02:14;100916.88;;;12.70
27986;BMP280;15453;53.692;10.168;2023-03-19T06:04:39;100914.97;;;12.71
27986;BMP280;15453;53.692;10.168;2023-03-19T06:07:05;100916.59;;;12.72
27986;BMP280;15453;53.692;10.168;2023-03-19T06:09:30;100915.50;;;12.73
27986;BMP280;15453;53.692;10.168;2023-03-19T06:11:56;100910.84;;;12.73
27986;BMP280;15453;53.692;10.168;2023-03-19T06:14:22;100925.19;;;12.75
27986;BMP280;15453;53.692;10.168;2023-03-19T06:16:47;100923.25;;;12.76
27986;BMP280;15453;53.692;10.168;2023-03-19T06:19:13;100923.00;;;12.77
27986;BMP280;15453;53.692;10.168;2023-03-19T06:21:38;100914.50;;;12.79
27986;BMP280;15453;53.692;10.168;2023-03-19T06:24:03;100918.91;;;12.80
27986;BMP280;15453;53.692;10.168;2023-03-19T06:26:29;100921.13;;;12.83
27986;BMP280;15453;53.692;10.168;2023-03-19T06:28:54;100925.53;;;12.84
27986;BMP280;15453;53.692;10.168;2023-03-19T06:31:19;100928.88;;;12.86
27986;BMP280;15453;53.692;10.168;2023-03-19T06:33:45;100941.25;;;12.88
27986;BMP280;15453;53.692;10.168;2023-03-19T06:36:10;100938.25;;;12.90
27986;BMP280;15453;53.692;10.168;2023-03-19T06:38:36;100938.25;;;12.90
27986;BMP280;15453;53.692;10.168;2023-03-19T06:41:01;100940.78;;;12.96
27986;BMP280;15453;53.692;10.168;2023-03-19T06:43:26;100940.78;;;12.96
27986;BMP280;15453;53.692;10.168;2023-03-19T06:45:52;100936.38;;;12.95
27986;BMP280;15453;53.692;10.168;2023-03-19T06:48:17;100938.66;;;13.03
27986;BMP280;15453;53.692;10.168;2023-03-19T06:50:44;100938.66;;;13.03
27986;BMP280;15453;53.692;10.168;2023-03-19T06:53:09;100952.19;;;13.10
27986;BMP280;15453;53.692;10.168;2023-03-19T06:55:35;100952.19;;;13.10
27986;BMP280;15453;53.692;10.168;2023-03-19T06:58:01;100956.44;;;13.17
27986;BMP280;15453;53.692;10.168;2023-03-19T07:00:27;100956.44;;;13.17
27986;BMP280;15453;53.692;10.168;2023-03-19T07:02:52;100962.72;;;13.18
27986;BMP280;15453;53.692;10.168;2023-03-19T07:05:17;100960.09;;;13.28
27986;BMP280;15453;53.692;10.168;2023-03-19T07:07:43;100962.31;;;13.31
27986;BMP280;15453;53.692;10.168;2023-03-19T07:10:08;100964.28;;;13.35
27986;BMP280;15453;53.692;10.168;2023-03-19T07:12:35;100969.25;;;13.38
27986;BMP280;15453;53.692;10.168;2023-03-19T07:15:00;100969.56;;;13.42
27986;BMP280;15453;53.692;10.168;2023-03-19T07:17:25;100975.09;;;13.47
27986;BMP280;15453;53.692;10.168;2023-03-19T07:19:51;100969.91;;;13.50
27986;BMP280;15453;53.692;10.168;2023-03-19T07:22:16;100959.75;;;13.56
27986;BMP280;15453;53.692;10.168;2023-03-19T07:24:41;100965.31;;;13.61
27986;BMP280;15453;53.692;10.168;2023-03-19T07:27:06;100967.84;;;13.67
27986;BMP280;15453;53.692;10.168;2023-03-19T07:29:32;100960.19;;;13.74
27986;BMP280;15453;53.692;10.168;2023-03-19T07:31:57;100965.19;;;13.82
27986;BMP280;15453;53.692;10.168;2023-03-19T07:34:23;100959.44;;;13.89
27986;BMP280;15453;53.692;10.168;2023-03-19T07:36:48;100963.34;;;13.98
27986;BMP280;15453;53.692;10.168;2023-03-19T07:39:14;100968.38;;;14.06
27986;BMP280;15453;53.692;10.168;2023-03-19T07:41:39;100959.06;;;14.12
27986;BMP280;15453;53.692;10.168;2023-03-19T07:44:05;100969.34;;;14.21
27986;BMP280;15453;53.692;10.168;2023-03-19T07:46:31;100966.06;;;14.29
27986;BMP280;15453;53.692;10.168;2023-03-19T07:48:56;100968.56;;;14.36
27986;BMP280;15453;53.692;10.168;2023-03-19T07:51:21;100981.00;;;14.43
27986;BMP280;15453;53.692;10.168;2023-03-19T07:53:46;100976.09;;;14.50
27986;BMP280;15453;53.692;10.168;2023-03-19T07:56:12;100975.84;;;14.57
27986;BMP280;15453;53.692;10.168;2023-03-19T07:58:37;100978.06;;;14.65
27986;BMP280;15453;53.692;10.168;2023-03-19T08:01:02;100977.25;;;14.74
27986;BMP280;15453;53.692;10.168;2023-03-19T08:03:28;100977.56;;;14.83
27986;BMP280;15453;53.692;10.168;2023-03-19T08:05:53;100979.53;;;14.92
27986;BMP280;15453;53.692;10.168;2023-03-19T08:08:19;100985.06;;;15.02
27986;BMP280;15453;53.692;10.168;2023-03-19T08:10:44;100976.53;;;15.14
27986;BMP280;15453;53.692;10.168;2023-03-19T08:13:09;100980.44;;;15.23
27986;BMP280;15453;53.692;10.168;2023-03-19T08:15:35;100978.22;;;15.35
27986;BMP280;15453;53.692;10.168;2023-03-19T08:18:01;100975.50;;;15.45
27986;BMP280;15453;53.692;10.168;2023-03-19T08:20:28;100977.13;;;15.56
27986;BMP280;15453;53.692;10.168;2023-03-19T08:22:54;100992.34;;;15.63
27986;BMP280;15453;53.692;10.168;2023-03-19T08:25:20;100976.59;;;15.74
27986;BMP280;15453;53.692;10.168;2023-03-19T08:27:46;100972.44;;;15.81
27986;BMP280;15453;53.692;10.168;2023-03-19T08:30:11;100983.19;;;15.88
27986;BMP280;15453;53.692;10.168;2023-03-19T08:32:37;100980.16;;;15.94
27986;BMP280;15453;53.692;10.168;2023-03-19T08:35:03;100989.25;;;16.00
27986;BMP280;15453;53.692;10.168;2023-03-19T08:37:30;100992.56;;;16.07
27986;BMP280;15453;53.692;10.168;2023-03-19T08:39:55;100992.56;;;16.07
27986;BMP280;15453;53.692;10.168;2023-03-19T08:42:21;100987.00;;;16.17
27986;BMP280;15453;53.692;10.168;2023-03-19T08:44:47;100987.00;;;16.17
27986;BMP280;15453;53.692;10.168;2023-03-19T08:47:12;100985.06;;;16.27
27986;BMP280;15453;53.692;10.168;2023-03-19T08:49:38;100985.06;;;16.27
27986;BMP280;15453;53.692;10.168;2023-03-19T08:52:04;100984.78;;;16.29
27986;BMP280;15453;53.692;10.168;2023-03-19T08:54:29;100987.81;;;16.42
27986;BMP280;15453;53.692;10.168;2023-03-19T08:56:54;100988.06;;;16.46
27986;BMP280;15453;53.692;10.168;2023-03-19T08:59:20;100988.06;;;16.46
27986;BMP280;15453;53.692;10.168;2023-03-19T09:01:49;100991.41;;;16.48
27986;BMP280;15453;53.692;10.168;2023-03-19T09:04:14;100991.38;;;16.53
27986;BMP280;15453;53.692;10.168;2023-03-19T09:06:40;100983.03;;;16.58
27986;BMP280;15453;53.692;10.168;2023-03-19T09:09:05;100990.72;;;16.71
27986;BMP280;15453;53.692;10.168;2023-03-19T09:11:31;100992.66;;;16.75
27986;BMP280;15453;53.692;10.168;2023-03-19T09:13:56;101002.03;;;16.79
27986;BMP280;15453;53.692;10.168;2023-03-19T09:16:21;101006.44;;;16.85
27986;BMP280;15453;53.692;10.168;2023-03-19T09:18:46;101000.06;;;16.90
27986;BMP280;15453;53.692;10.168;2023-03-19T09:21:12;101010.81;;;16.96
27986;BMP280;15453;53.692;10.168;2023-03-19T09:23:37;101004.69;;;17.04
27986;BMP280;15453;53.692;10.168;2023-03-19T09:26:02;101010.97;;;17.10
27986;BMP280;15453;53.692;10.168;2023-03-19T09:28:28;101012.38;;;17.13
27986;BMP280;15453;53.692;10.168;2023-03-19T09:30:53;101009.84;;;17.16
27986;BMP280;15453;53.692;10.168;2023-03-19T09:33:19;101004.56;;;17.19
27986;BMP280;15453;53.692;10.168;2023-03-19T09:35:49;101004.28;;;17.21
27986;BMP280;15453;53.692;10.168;2023-03-19T09:38:17;101008.41;;;17.23
27986;BMP280;15453;53.692;10.168;2023-03-19T09:40:45;101010.91;;;17.25
27986;BMP280;15453;53.692;10.168;2023-03-19T09:46:03;101001.16;;;17.33
27986;BMP280;15453;53.692;10.168;2023-03-19T09:48:37;101009.44;;;17.38
27986;BMP280;15453;53.692;10.168;2023-03-19T09:51:07;101012.44;;;17.46
27986;BMP280;15453;53.692;10.168;2023-03-19T09:56:13;101014.00;;;17.62
27986;BMP280;15453;53.692;10.168;2023-03-19T09:58:39;101013.91;;;17.72
27986;BMP280;15453;53.692;10.168;2023-03-19T10:01:05;101017.69;;;17.81
27986;BMP280;15453;53.692;10.168;2023-03-19T10:06:33;101021.41;;;18.00
27986;BMP280;15453;53.692;10.168;2023-03-19T10:09:20;101028.88;;;18.05
27986;BMP280;15453;53.692;10.168;2023-03-19T10:16:59;101026.53;;;18.17
27986;BMP280;15453;53.692;10.168;2023-03-19T10:19:44;101024.56;;;18.17
27986;BMP280;15453;53.692;10.168;2023-03-19T10:22:15;101028.97;;;18.23
27986;BMP280;15453;53.692;10.168;2023-03-19T10:24:43;101022.81;;;18.26
27986;BMP280;15453;53.692;10.168;2023-03-19T10:27:19;101022.78;;;18.31
27986;BMP280;15453;53.692;10.168;2023-03-19T10:29:44;101022.75;;;18.36
27986;BMP280;15453;53.692;10.168;2023-03-19T10:32:22;101026.31;;;18.42
27986;BMP280;15453;53.692;10.168;2023-03-19T10:34:52;101023.97;;;18.49
27986;BMP280;15453;53.692;10.168;2023-03-19T10:37:26;101012.25;;;18.57
27986;BMP280;15453;53.692;10.168;2023-03-19T10:39:57;101019.84;;;18.70
27986;BMP280;15453;53.692;10.168;2023-03-19T10:42:38;101019.84;;;18.70
27986;BMP280;15453;53.692;10.168;2023-03-19T10:45:13;101019.19;;;18.78
27986;BMP280;15453;53.692;10.168;2023-03-19T10:47:42;101014.94;;;19.04
27986;BMP280;15453;53.692;10.168;2023-03-19T10:50:15;101014.94;;;19.04
27986;BMP280;15453;53.692;10.168;2023-03-19T10:52:41;101016.88;;;19.27
27986;BMP280;15453;53.692;10.168;2023-03-19T10:55:16;101016.88;;;19.27
27986;BMP280;15453;53.692;10.168;2023-03-19T10:57:44;101023.28;;;19.46
27986;BMP280;15453;53.692;10.168;2023-03-19T11:00:22;101023.28;;;19.46
27986;BMP280;15453;53.692;10.168;2023-03-19T11:02:53;101008.75;;;19.49
27986;BMP280;15453;53.692;10.168;2023-03-19T11:07:55;101011.31;;;19.64
27986;BMP280;15453;53.692;10.168;2023-03-19T11:10:23;101022.03;;;19.70
27986;BMP280;15453;53.692;10.168;2023-03-19T11:13:03;101012.78;;;19.75
27986;BMP280;15453;53.692;10.168;2023-03-19T11:15:36;101023.53;;;19.81
27986;BMP280;15453;53.692;10.168;2023-03-19T11:18:19;101017.59;;;19.88
27986;BMP280;15453;53.692;10.168;2023-03-19T11:20:58;101018.84;;;19.95
27986;BMP280;15453;53.692;10.168;2023-03-19T11:23:28;101021.53;;;20.00
27986;BMP280;15453;53.692;10.168;2023-03-19T11:25:58;101025.34;;;20.04
27986;BMP280;15453;53.692;10.168;2023-03-19T11:28:24;101025.44;;;19.99
27986;BMP280;15453;53.692;10.168;2023-03-19T11:38:56;101013.47;;;19.99
27986;BMP280;15453;53.692;10.168;2023-03-19T11:41:32;101008.56;;;19.96
27986;BMP280;15453;53.692;10.168;2023-03-19T11:44:09;101008.63;;;19.91
27986;BMP280;15453;53.692;10.168;2023-03-19T11:46:43;101006.78;;;19.86
27986;BMP280;15453;53.692;10.168;2023-03-19T11:51:50;101015.25;;;19.76
27986;BMP280;15453;53.692;10.168;2023-03-19T11:57:01;101012.34;;;19.68
27986;BMP280;15453;53.692;10.168;2023-03-19T12:04:59;101014.59;;;19.66
27986;BMP280;15453;53.692;10.168;2023-03-19T12:07:50;101018.50;;;19.65
27986;BMP280;15453;53.692;10.168;2023-03-19T12:10:42;101018.22;;;19.66
27986;BMP280;15453;53.692;10.168;2023-03-19T12:13:19;101011.22;;;19.69
27986;BMP280;15453;53.692;10.168;2023-03-19T12:24:26;101004.38;;;19.80
27986;BMP280;15453;53.692;10.168;2023-03-19T12:27:01;101001.66;;;19.75
27986;BMP280;15453;53.692;10.168;2023-03-19T12:29:41;100998.72;;;19.85
27986;BMP280;15453;53.692;10.168;2023-03-19T12:32:24;100996.78;;;19.85
27986;BMP280;15453;53.692;10.168;2023-03-19T12:35:03;100998.94;;;19.88
27986;BMP280;15453;53.692;10.168;2023-03-19T12:37:37;100987.50;;;19.90
27986;BMP280;15453;53.692;10.168;2023-03-19T12:40:25;100995.56;;;19.91
27986;BMP280;15453;53.692;10.168;2023-03-19T12:42:56;100995.56;;;19.91
27986;BMP280;15453;53.692;10.168;2023-03-19T12:45:37;100991.44;;;19.89
27986;BMP280;15453;53.692;10.168;2023-03-19T12:48:10;100984.81;;;19.85
27986;BMP280;15453;53.692;10.168;2023-03-19T12:50:39;100992.63;;;19.83
27986;BMP280;15453;53.692;10.168;2023-03-19T12:53:10;101002.41;;;19.80
27986;BMP280;15453;53.692;10.168;2023-03-19T12:55:48;101002.41;;;19.80
27986;BMP280;15453;53.692;10.168;2023-03-19T13:06:04;101014.38;;;19.62
27986;BMP280;15453;53.692;10.168;2023-03-19T13:08:55;101005.84;;;19.59
27986;BMP280;15453;53.692;10.168;2023-03-19T13:11:34;101000.88;;;19.56
27986;BMP280;15453;53.692;10.168;2023-03-19T13:16:38;101004.63;;;19.46
27986;BMP280;15453;53.692;10.168;2023-03-19T13:19:18;101007.50;;;19.41
27986;BMP280;15453;53.692;10.168;2023-03-19T13:21:48;101004.19;;;19.39
27986;BMP280;15453;53.692;10.168;2023-03-19T13:24:27;101007.81;;;19.40
27986;BMP280;15453;53.692;10.168;2023-03-19T13:26:54;101015.53;;;19.43
27986;BMP280;15453;53.692;10.168;2023-03-19T13:29:28;101002.78;;;19.42
27986;BMP280;15453;53.692;10.168;2023-03-19T13:32:00;101014.41;;;19.44
27986;BMP280;15453;53.692;10.168;2023-03-19T13:34:28;100999.09;;;19.46
27986;BMP280;15453;53.692;10.168;2023-03-19T13:39:26;101000.72;;;19.47
27986;BMP280;15453;53.692;10.168;2023-03-19T13:47:00;100998.28;;;19.46
27986;BMP280;15453;53.692;10.168;2023-03-19T13:51:59;101005.78;;;19.45
27986;BMP280;15453;53.692;10.168;2023-03-19T13:54:34;100998.03;;;19.42
27986;BMP280;15453;53.692;10.168;2023-03-19T13:59:28;100991.13;;;19.40
27986;BMP280;15453;53.692;10.168;2023-03-19T14:01:55;100993.06;;;19.39
27986;BMP280;15453;53.692;10.168;2023-03-19T14:04:29;100993.69;;;19.36
27986;BMP280;15453;53.692;10.168;2023-03-19T14:07:29;100986.25;;;19.32
27986;BMP280;15453;53.692;10.168;2023-03-19T14:12:32;100994.81;;;19.35
27986;BMP280;15453;53.692;10.168;2023-03-19T14:15:02;100994.00;;;19.35
27986;BMP280;15453;53.692;10.168;2023-03-19T14:17:38;100992.88;;;19.36
27986;BMP280;15453;53.692;10.168;2023-03-19T14:22:37;101004.28;;;19.34
27986;BMP280;15453;53.692;10.168;2023-03-19T14:25:15;101004.56;;;19.33
27986;BMP280;15453;53.692;10.168;2023-03-19T14:27:54;101000.44;;;19.30
27986;BMP280;15453;53.692;10.168;2023-03-19T14:32:52;101018.25;;;19.29
27986;BMP280;15453;53.692;10.168;2023-03-19T14:35:20;101022.75;;;19.25
27986;BMP280;15453;53.692;10.168;2023-03-19T14:37:48;101022.75;;;19.25
27986;BMP280;15453;53.692;10.168;2023-03-19T14:40:19;101018.88;;;19.21
27986;BMP280;15453;53.692;10.168;2023-03-19T14:42:57;101018.88;;;19.21
27986;BMP280;15453;53.692;10.168;2023-03-19T14:53:56;101011.16;;;19.37
27986;BMP280;15453;53.692;10.168;2023-03-19T14:56:24;101011.16;;;19.37
27986;BMP280;15453;53.692;10.168;2023-03-19T14:58:54;101008.25;;;19.28
27986;BMP280;15453;53.692;10.168;2023-03-19T15:01:21;101002.53;;;19.38
27986;BMP280;15453;53.692;10.168;2023-03-19T15:03:53;101016.97;;;19.40
27986;BMP280;15453;53.692;10.168;2023-03-19T15:06:18;101004.19;;;19.39
27986;BMP280;15453;53.692;10.168;2023-03-19T15:08:44;101010.88;;;19.38
27986;BMP280;15453;53.692;10.168;2023-03-19T15:16:46;101014.63;;;19.29